createdAt,value
2022-08-16T00:01:24.556Z,10.00
2022-08-16T00:03:53.745Z,9.63
2022-08-16T00:06:23.429Z,10.13
2022-08-16T00:08:52.437Z,9.50
2022-08-16T00:11:22.753Z,9.48
2022-08-16T00:13:54.040Z,9.70
2022-08-16T00:17:05.596Z,9.52
2022-08-16T00:19:13.648Z,9.63
2022-08-16T00:21:42.633Z,9.13
2022-08-16T00:24:11.584Z,9.60
2022-08-16T00:26:44.393Z,9.45
2022-08-16T00:29:15.751Z,9.60
2022-08-16T00:31:47.105Z,8.75
2022-08-16T00:34:45.225Z,9.73
2022-08-16T00:37:18.734Z,8.88
2022-08-16T00:39:58.250Z,9.05
2022-08-16T00:42:31.772Z,9.38
2022-08-16T00:45:08.745Z,9.38
2022-08-16T00:47:49.584Z,9.70
2022-08-16T00:50:21.225Z,9.20
2022-08-16T00:52:51.066Z,9.77
2022-08-16T00:55:22.226Z,10.25
2022-08-16T00:57:58.635Z,9.70
2022-08-16T01:00:30.695Z,9.85
2022-08-16T01:03:02.581Z,9.10
2022-08-16T01:05:32.825Z,8.68
2022-08-16T01:08:02.656Z,9.27
2022-08-16T01:10:51.202Z,9.20
2022-08-16T01:13:24.124Z,9.55
2022-08-16T01:15:58.218Z,9.93
2022-08-16T01:18:39.983Z,9.60
2022-08-16T01:21:22.395Z,9.20
2022-08-16T01:24:44.391Z,9.93
2022-08-16T01:27:17.475Z,9.40
2022-08-16T01:29:57.819Z,10.43
2022-08-16T01:32:31.446Z,9.88
2022-08-16T01:35:02.213Z,10.07
2022-08-16T01:37:35.771Z,9.20
2022-08-16T01:40:07.191Z,10.32
2022-08-16T01:42:37.105Z,9.82
2022-08-16T01:45:10.932Z,9.82
2022-08-16T01:47:49.260Z,9.60
2022-08-16T01:50:42.508Z,10.50
2022-08-16T01:53:07.919Z,10.25
2022-08-16T01:55:40.780Z,9.48
2022-08-16T01:58:10.815Z,9.63
2022-08-16T02:00:40.447Z,10.48
2022-08-16T02:03:08.656Z,9.93
2022-08-16T02:05:46.646Z,10.80
2022-08-16T02:08:32.591Z,10.35
2022-08-16T02:11:04.567Z,9.57
2022-08-16T02:13:34.087Z,9.48
2022-08-16T02:16:02.250Z,10.18
2022-08-16T02:18:30.355Z,9.70
2022-08-16T02:20:58.590Z,10.48
2022-08-16T02:23:29.676Z,10.32
2022-08-16T02:25:59.438Z,10.60
2022-08-16T02:28:28.272Z,10.65
2022-08-16T02:31:03.908Z,10.15
2022-08-16T02:33:43.785Z,10.02
2022-08-16T02:36:47.497Z,9.60
2022-08-16T02:39:07.298Z,9.68
2022-08-16T02:41:39.426Z,9.95
2022-08-16T02:44:08.610Z,10.07
2022-08-16T02:46:38.933Z,11.80
2022-08-16T02:49:18.361Z,11.40
2022-08-16T02:51:48.534Z,12.88
2022-08-16T02:54:18.236Z,12.40
2022-08-16T02:56:47.886Z,12.95
2022-08-16T02:59:16.127Z,13.43
2022-08-16T03:01:45.645Z,12.70
2022-08-16T03:04:39.165Z,12.18
2022-08-16T03:07:03.793Z,12.15
2022-08-16T03:09:32.565Z,12.65
2022-08-16T03:12:02.478Z,12.90
2022-08-16T03:14:30.765Z,12.48
2022-08-16T03:17:02.000Z,12.00
2022-08-16T03:19:46.805Z,12.23
2022-08-16T03:22:28.031Z,12.05
2022-08-16T03:24:57.342Z,10.98
2022-08-16T03:27:30.837Z,12.23
2022-08-16T03:30:00.406Z,13.75
2022-08-16T03:32:29.956Z,13.95
2022-08-16T03:34:57.982Z,13.30
2022-08-16T03:37:25.992Z,13.18
2022-08-16T03:40:02.593Z,13.43
2022-08-16T03:42:31.360Z,12.65
2022-08-16T03:45:03.836Z,12.50
2022-08-16T03:47:35.151Z,12.70
2022-08-16T03:50:25.571Z,12.20
2022-08-16T03:52:59.617Z,12.27
2022-08-16T03:55:40.017Z,12.45
2022-08-16T03:58:13.325Z,11.57
2022-08-16T04:00:42.312Z,11.90
2022-08-16T04:03:11.773Z,13.70
2022-08-16T04:05:44.115Z,12.63
2022-08-16T04:08:23.111Z,12.23
2022-08-16T04:10:54.912Z,12.93
2022-08-16T04:13:59.246Z,11.80
2022-08-16T04:16:26.125Z,12.40
2022-08-16T04:19:01.311Z,13.75
2022-08-16T04:21:31.990Z,14.13
2022-08-16T04:24:00.691Z,14.00
2022-08-16T04:26:31.209Z,14.00
2022-08-16T04:29:14.982Z,13.00
2022-08-16T04:31:56.488Z,14.75
2022-08-16T04:34:29.357Z,15.70
2022-08-16T04:36:59.049Z,14.80
2022-08-16T04:39:45.796Z,14.48
2022-08-16T04:42:16.334Z,15.00
2022-08-16T04:44:53.816Z,14.80
2022-08-16T04:47:24.957Z,15.13
2022-08-16T04:49:54.699Z,14.50
2022-08-16T04:52:32.717Z,15.38
2022-08-16T04:55:01.229Z,16.50
2022-08-16T04:57:31.849Z,16.88
2022-08-16T05:00:32.809Z,17.55
2022-08-16T05:02:55.720Z,17.17
2022-08-16T05:05:25.828Z,16.58
2022-08-16T05:08:01.518Z,16.33
2022-08-16T05:10:49.646Z,17.50
2022-08-16T05:13:19.159Z,22.77
2022-08-16T05:15:49.851Z,16.35
2022-08-16T05:18:21.997Z,15.85
2022-08-16T05:21:01.630Z,17.10
2022-08-16T05:23:39.169Z,16.48
2022-08-16T05:26:19.518Z,16.15
2022-08-16T05:28:47.823Z,16.75
2022-08-16T05:31:24.244Z,16.13
2022-08-16T05:33:58.741Z,15.80
2022-08-16T05:36:34.101Z,16.45
2022-08-16T05:39:09.630Z,15.07
2022-08-16T05:41:44.983Z,16.10
2022-08-16T05:44:23.010Z,15.45
2022-08-16T05:46:53.082Z,15.25
2022-08-16T05:49:23.344Z,15.20
2022-08-16T05:51:54.907Z,15.23
2022-08-16T05:54:25.514Z,16.48
2022-08-16T05:56:54.573Z,15.95
2022-08-16T05:59:24.704Z,15.55
2022-08-16T06:01:55.366Z,16.30
2022-08-16T06:04:34.505Z,15.95
2022-08-16T06:07:09.137Z,16.08
2022-08-16T06:09:43.497Z,16.15
2022-08-16T06:12:26.946Z,16.08
2022-08-16T06:14:59.889Z,15.40
2022-08-16T06:17:42.789Z,15.77
2022-08-16T06:20:18.506Z,17.27
2022-08-16T06:22:57.585Z,15.27
2022-08-16T06:25:35.905Z,15.38
2022-08-16T06:28:08.928Z,15.48
2022-08-16T06:30:44.191Z,15.63
2022-08-16T06:33:19.782Z,14.93
2022-08-16T06:35:51.025Z,14.20
2022-08-16T06:38:33.496Z,14.93
2022-08-16T06:41:05.021Z,13.90
2022-08-16T06:43:34.678Z,13.23
2022-08-16T06:46:09.913Z,13.18
2022-08-16T06:48:42.726Z,13.45
2022-08-16T06:51:10.792Z,12.32
2022-08-16T06:53:40.413Z,13.30
2022-08-16T06:56:14.176Z,13.15
2022-08-16T06:58:52.065Z,12.85
2022-08-16T07:01:42.856Z,13.40
2022-08-16T07:04:12.146Z,12.82
2022-08-16T07:06:43.222Z,12.93
2022-08-16T07:09:16.026Z,13.27
2022-08-16T07:11:47.216Z,13.20
2022-08-16T07:14:25.794Z,13.52
2022-08-16T07:16:59.064Z,12.90
2022-08-16T07:20:03.778Z,13.40
2022-08-16T07:22:42.485Z,12.65
2022-08-16T07:25:22.810Z,12.95
2022-08-16T07:27:51.147Z,13.18
2022-08-16T07:30:39.545Z,11.63
2022-08-16T07:33:09.429Z,11.90
2022-08-16T07:35:44.566Z,11.88
2022-08-16T07:38:19.686Z,11.40
2022-08-16T07:41:00.261Z,12.20
2022-08-16T07:43:29.821Z,12.00
2022-08-16T07:45:59.525Z,10.93
2022-08-16T07:48:30.304Z,11.30
2022-08-16T07:51:00.872Z,11.55
2022-08-16T07:53:32.649Z,11.68
2022-08-16T07:56:04.399Z,11.23
2022-08-16T07:58:36.171Z,10.70
2022-08-16T08:01:11.160Z,10.57
2022-08-16T08:03:48.265Z,10.55
2022-08-16T08:06:18.449Z,9.90
2022-08-16T08:08:51.104Z,10.10
2022-08-16T08:11:23.656Z,10.95
2022-08-16T08:13:52.543Z,10.30
2022-08-16T08:16:30.658Z,8.77
2022-08-16T08:19:02.668Z,8.63
2022-08-16T08:21:59.240Z,7.93
2022-08-16T08:24:22.414Z,7.25
2022-08-16T08:27:02.421Z,8.25
2022-08-16T08:29:37.807Z,7.55
2022-08-16T08:32:57.790Z,8.18
2022-08-16T08:35:03.173Z,7.68
2022-08-16T08:37:41.715Z,7.38
2022-08-16T08:40:24.648Z,7.20
2022-08-16T08:42:57.715Z,7.57
2022-08-16T08:45:46.946Z,4.88
2022-08-16T08:48:33.504Z,4.90
2022-08-16T08:51:03.526Z,4.75
2022-08-16T08:53:33.353Z,4.95
2022-08-16T08:56:23.381Z,5.00
2022-08-16T08:58:54.959Z,4.45
2022-08-16T09:01:36.214Z,4.38
2022-08-16T09:04:05.878Z,4.00
2022-08-16T09:06:35.023Z,4.38
2022-08-16T09:09:03.863Z,4.30
2022-08-16T09:11:40.788Z,4.63
2022-08-16T09:14:24.140Z,4.47
2022-08-16T09:17:04.078Z,4.20
2022-08-16T09:19:41.009Z,4.43
2022-08-16T09:22:20.094Z,4.20
2022-08-16T09:24:53.422Z,4.60
2022-08-16T09:27:23.460Z,4.45
2022-08-16T09:29:59.728Z,4.90
2022-08-16T09:32:30.878Z,4.75
2022-08-16T09:35:00.195Z,4.70
2022-08-16T09:37:29.398Z,4.82
2022-08-16T09:39:59.644Z,4.47
2022-08-16T09:42:29.880Z,4.93
2022-08-16T09:45:10.685Z,4.25
2022-08-16T09:47:56.255Z,4.32
2022-08-16T09:50:33.203Z,4.88
2022-08-16T09:53:16.088Z,3.97
2022-08-16T09:55:49.077Z,4.30
2022-08-16T09:58:40.513Z,4.57
2022-08-16T10:01:08.546Z,4.50
2022-08-16T10:04:01.911Z,4.32
2022-08-16T10:06:33.366Z,4.10
2022-08-16T10:09:05.827Z,4.65
2022-08-16T10:11:52.413Z,4.10
2022-08-16T10:14:24.876Z,4.03
2022-08-16T10:17:05.784Z,4.30
2022-08-16T10:19:34.597Z,3.75
2022-08-16T10:22:05.202Z,4.30
2022-08-16T10:24:34.333Z,3.97
2022-08-16T10:27:21.151Z,4.35
2022-08-16T10:30:01.160Z,4.43
2022-08-16T10:32:35.836Z,4.35
2022-08-16T10:35:08.618Z,4.57
2022-08-16T10:37:36.714Z,4.80
2022-08-16T10:40:28.536Z,4.25
2022-08-16T10:42:55.471Z,4.43
2022-08-16T10:45:23.742Z,4.35
2022-08-16T10:48:00.837Z,4.45
2022-08-16T10:50:32.473Z,5.22
2022-08-16T10:53:07.490Z,4.30
2022-08-16T10:55:42.923Z,5.18
2022-08-16T10:58:17.053Z,4.57
2022-08-16T11:00:46.889Z,4.78
2022-08-16T11:06:07.600Z,4.32
2022-08-16T11:08:45.480Z,3.70
2022-08-16T11:11:19.396Z,3.85
2022-08-16T11:13:58.745Z,3.95
2022-08-16T11:17:02.961Z,4.38
2022-08-16T11:19:18.365Z,3.97
2022-08-16T11:24:42.545Z,4.25
2022-08-16T11:27:19.701Z,4.15
2022-08-16T11:29:49.579Z,4.00
2022-08-16T11:32:20.172Z,4.57
2022-08-16T11:35:13.529Z,4.00
2022-08-16T11:40:33.062Z,4.80
2022-08-16T11:43:04.668Z,5.07
2022-08-16T11:45:33.786Z,4.72
2022-08-16T11:48:03.275Z,6.15
2022-08-16T11:50:33.862Z,7.18
2022-08-16T11:53:03.793Z,4.47
2022-08-16T11:55:33.081Z,3.05
2022-08-16T11:58:01.575Z,3.53
2022-08-16T12:00:49.911Z,4.32
2022-08-16T12:03:21.840Z,4.72
2022-08-16T12:06:03.956Z,4.88
2022-08-16T12:08:32.712Z,4.50
2022-08-16T12:11:02.357Z,3.75
2022-08-16T12:13:30.803Z,4.10
2022-08-16T12:15:58.916Z,3.95
2022-08-16T12:18:27.087Z,3.67
2022-08-16T12:20:58.343Z,3.97
2022-08-16T12:23:29.679Z,3.85
2022-08-16T12:25:59.882Z,3.25
2022-08-16T12:28:37.033Z,3.83
2022-08-16T12:31:16.124Z,4.05
2022-08-16T12:33:45.195Z,3.67
2022-08-16T12:36:17.009Z,4.50
2022-08-16T12:38:48.005Z,4.55
2022-08-16T12:41:25.525Z,4.28
2022-08-16T12:43:57.146Z,4.60
2022-08-16T12:46:31.050Z,4.53
2022-08-16T12:48:59.869Z,4.60
2022-08-16T12:51:57.559Z,4.40
2022-08-16T12:54:22.026Z,4.95
2022-08-16T12:56:50.382Z,4.50
2022-08-16T12:59:20.806Z,4.50
2022-08-16T13:01:50.585Z,4.95
2022-08-16T13:04:24.431Z,4.40
2022-08-16T13:06:53.365Z,3.92
2022-08-16T13:09:26.809Z,4.10
2022-08-16T13:12:03.423Z,4.07
2022-08-16T13:14:34.385Z,4.05
2022-08-16T13:17:06.506Z,4.40
2022-08-16T13:20:03.871Z,3.92
2022-08-16T13:22:25.365Z,3.85
2022-08-16T13:24:55.951Z,4.10
2022-08-16T13:28:02.604Z,3.65
2022-08-16T13:30:36.456Z,3.53
2022-08-16T13:33:11.235Z,2.85
2022-08-16T13:35:43.866Z,3.00
2022-08-16T13:38:24.679Z,3.35
2022-08-16T13:40:56.002Z,2.78
2022-08-16T13:43:26.348Z,2.47
2022-08-16T13:45:55.443Z,2.97
2022-08-16T13:48:37.074Z,3.03
2022-08-16T13:51:15.691Z,2.58
2022-08-16T13:53:45.865Z,2.33
2022-08-16T13:56:36.818Z,2.80
2022-08-16T13:59:19.411Z,2.30
2022-08-16T14:01:55.337Z,2.58
2022-08-16T14:04:26.690Z,2.70
2022-08-16T14:06:56.418Z,2.33
2022-08-16T14:09:25.044Z,2.78
2022-08-16T14:11:57.708Z,2.70
2022-08-16T14:14:29.675Z,2.50
2022-08-16T14:16:59.335Z,2.80
2022-08-16T14:19:27.702Z,2.85
2022-08-16T14:22:14.882Z,2.42
2022-08-16T14:24:45.321Z,3.25
2022-08-16T14:27:18.266Z,2.85
2022-08-16T14:29:49.207Z,2.80
2022-08-16T14:32:33.560Z,2.70
2022-08-16T14:35:07.248Z,2.80
2022-08-16T14:37:35.887Z,3.15
2022-08-16T14:40:05.887Z,2.97
2022-08-16T14:42:36.539Z,3.10
2022-08-16T14:45:05.897Z,2.97
2022-08-16T14:47:37.153Z,3.03
2022-08-16T14:50:07.581Z,2.90
2022-08-16T14:52:56.258Z,2.83
2022-08-16T14:55:25.988Z,2.95
2022-08-16T14:57:55.848Z,2.78
2022-08-16T15:00:27.147Z,2.90
2022-08-16T15:03:04.614Z,3.00
2022-08-16T15:05:32.866Z,3.10
2022-08-16T15:08:01.110Z,2.72
2022-08-16T15:10:32.156Z,2.90
2022-08-16T15:13:02.032Z,3.00
2022-08-16T15:15:31.854Z,2.90
2022-08-16T15:18:02.370Z,2.90
2022-08-16T15:20:35.199Z,2.70
2022-08-16T15:23:08.117Z,2.90
2022-08-16T15:25:41.095Z,2.80
2022-08-16T15:28:30.762Z,2.80
2022-08-16T15:31:04.525Z,2.85
2022-08-16T15:33:42.143Z,2.80
2022-08-16T15:36:17.799Z,2.75
2022-08-16T15:39:02.834Z,2.88
2022-08-16T15:41:56.236Z,3.13
2022-08-16T15:44:36.787Z,2.90
2022-08-16T15:47:16.368Z,2.90
2022-08-16T15:49:53.125Z,3.20
2022-08-16T15:52:29.264Z,3.13
2022-08-16T15:54:59.482Z,2.75
2022-08-16T15:57:41.279Z,3.08
2022-08-16T16:00:14.695Z,3.42
2022-08-16T16:02:43.879Z,3.20
2022-08-16T16:05:12.036Z,3.17
2022-08-16T16:07:55.652Z,2.83
2022-08-16T16:10:29.813Z,3.70
2022-08-16T16:13:00.937Z,3.30
2022-08-16T16:15:32.517Z,2.80
2022-08-16T16:18:09.646Z,3.30
2022-08-16T16:20:39.915Z,3.45
2022-08-16T16:23:11.086Z,3.67
2022-08-16T16:25:43.828Z,3.47
2022-08-16T16:28:51.211Z,3.30
2022-08-16T16:31:05.789Z,3.80
2022-08-16T16:33:36.961Z,4.20
2022-08-16T16:36:06.975Z,3.55
2022-08-16T16:38:36.110Z,3.75
2022-08-16T16:41:10.492Z,3.97
2022-08-16T16:43:40.608Z,4.03
2022-08-16T16:46:41.354Z,3.88
2022-08-16T16:49:03.026Z,4.07
2022-08-16T16:51:32.519Z,3.50
2022-08-16T16:54:12.926Z,4.40
2022-08-16T16:56:45.954Z,4.40
2022-08-16T16:59:18.322Z,4.18
2022-08-16T17:01:57.406Z,4.68
2022-08-16T17:04:39.454Z,3.90
2022-08-16T17:07:11.130Z,4.45
2022-08-16T17:09:41.006Z,4.20
2022-08-16T17:12:14.546Z,3.95
2022-08-16T17:14:52.879Z,3.80
2022-08-16T17:17:22.744Z,4.05
2022-08-16T17:19:50.901Z,4.63
2022-08-16T17:22:21.415Z,4.55
2022-08-16T17:24:53.253Z,4.13
2022-08-16T17:27:32.812Z,4.35
2022-08-16T17:30:16.750Z,4.68
2022-08-16T17:32:50.689Z,5.65
2022-08-16T17:35:34.045Z,5.13
2022-08-16T17:38:04.715Z,5.25
2022-08-16T17:40:47.818Z,5.68
2022-08-16T17:43:23.963Z,4.93
2022-08-16T17:45:53.075Z,5.00
2022-08-16T17:48:22.900Z,4.60
2022-08-16T17:50:54.496Z,4.30
2022-08-16T17:53:23.837Z,4.95
2022-08-16T17:55:54.450Z,4.80
2022-08-16T17:58:24.257Z,5.15
2022-08-16T18:00:57.480Z,4.57
2022-08-16T18:04:03.018Z,4.53
2022-08-16T18:06:18.675Z,5.43
2022-08-16T18:08:48.318Z,5.30
2022-08-16T18:11:25.969Z,5.10
2022-08-16T18:13:56.374Z,5.10
2022-08-16T18:16:35.435Z,4.93
2022-08-16T18:19:04.801Z,4.68
2022-08-16T18:21:50.561Z,4.65
2022-08-16T18:24:19.640Z,5.03
2022-08-16T18:26:47.962Z,5.10
2022-08-16T18:29:16.230Z,5.10
2022-08-16T18:31:44.617Z,5.30
2022-08-16T18:34:14.473Z,4.78
2022-08-16T18:36:42.517Z,5.30
2022-08-16T18:39:12.723Z,4.80
2022-08-16T18:41:40.789Z,4.60
2022-08-16T18:44:25.171Z,5.07
2022-08-16T18:46:55.915Z,4.40
2022-08-16T18:49:25.296Z,4.40
2022-08-16T18:51:58.346Z,5.05
2022-08-16T18:54:28.110Z,4.70
2022-08-16T18:56:58.152Z,4.40
2022-08-16T18:59:29.589Z,4.38
2022-08-16T19:02:04.338Z,4.55
2022-08-16T19:04:55.862Z,4.18
2022-08-16T19:07:23.314Z,4.00
2022-08-16T19:09:59.819Z,3.70
2022-08-16T19:12:38.438Z,3.88
2022-08-16T19:15:14.253Z,3.90
2022-08-16T19:17:44.228Z,4.20
2022-08-16T19:20:16.246Z,3.67
2022-08-16T19:25:46.680Z,3.72
2022-08-16T19:28:33.377Z,3.75
2022-08-16T19:31:05.460Z,3.95
2022-08-16T19:33:33.689Z,3.58
2022-08-16T19:36:03.297Z,3.40
2022-08-16T19:38:32.210Z,3.70
2022-08-16T19:41:00.271Z,3.60
2022-08-16T19:43:28.318Z,3.40
2022-08-16T19:45:56.408Z,3.53
2022-08-16T19:48:24.560Z,3.40
2022-08-16T19:50:52.669Z,3.75
2022-08-16T19:53:22.120Z,3.72
2022-08-16T19:55:50.136Z,3.67
2022-08-16T19:58:20.216Z,3.80
2022-08-16T20:00:52.243Z,3.45
2022-08-16T20:03:25.700Z,3.58
2022-08-16T20:05:53.973Z,3.45
2022-08-16T20:08:23.386Z,3.67
2022-08-16T20:10:51.633Z,4.05
2022-08-16T20:13:21.741Z,3.20
2022-08-16T20:15:51.509Z,3.50
2022-08-16T20:18:25.021Z,3.28
2022-08-16T20:20:54.334Z,3.28
2022-08-16T20:23:25.200Z,3.42
2022-08-16T20:25:55.854Z,3.22
2022-08-16T20:28:40.729Z,3.58
2022-08-16T20:31:12.439Z,3.40
2022-08-16T20:33:40.629Z,3.13
2022-08-16T20:36:09.649Z,3.28
2022-08-16T20:38:47.833Z,3.25
2022-08-16T20:41:16.248Z,2.95
2022-08-16T20:43:45.648Z,3.45
2022-08-16T20:46:15.016Z,3.35
2022-08-16T20:48:43.225Z,3.55
2022-08-16T20:51:11.674Z,3.22
2022-08-16T20:53:40.128Z,3.40
2022-08-16T20:56:10.862Z,3.17
2022-08-16T20:58:38.908Z,3.35
2022-08-16T21:01:08.097Z,3.50
2022-08-16T21:03:37.458Z,3.83
2022-08-16T21:06:06.304Z,3.97
2022-08-16T21:08:53.471Z,3.72
2022-08-16T21:11:24.061Z,3.28
2022-08-16T21:13:55.386Z,3.63
2022-08-16T21:16:30.613Z,3.78
2022-08-16T21:18:58.911Z,3.67
2022-08-16T21:21:33.480Z,3.75
2022-08-16T21:24:02.201Z,3.60
2022-08-16T21:26:31.931Z,3.70
2022-08-16T21:29:00.713Z,3.70
2022-08-16T21:31:29.635Z,4.30
2022-08-16T21:33:58.032Z,4.20
2022-08-16T21:36:35.222Z,4.10
2022-08-16T21:39:06.097Z,4.20
2022-08-16T21:41:38.582Z,3.92
2022-08-16T21:44:09.850Z,3.85
2022-08-16T21:46:38.157Z,4.60
2022-08-16T21:49:06.408Z,4.00
2022-08-16T21:51:36.432Z,4.40
2022-08-16T21:54:05.394Z,3.90
2022-08-16T21:56:33.709Z,4.38
2022-08-16T21:59:07.632Z,4.32
2022-08-16T22:01:38.388Z,4.68
2022-08-16T22:04:38.071Z,4.40
2022-08-16T22:06:55.715Z,4.43
2022-08-16T22:09:24.352Z,4.40
2022-08-16T22:11:52.659Z,5.10
2022-08-16T22:14:22.101Z,4.43
2022-08-16T22:16:50.079Z,4.10
2022-08-16T22:19:18.348Z,4.22
2022-08-16T22:21:46.362Z,4.43
2022-08-16T22:24:14.359Z,4.45
2022-08-16T22:26:43.537Z,4.25
2022-08-16T22:29:14.510Z,5.22
2022-08-16T22:31:44.859Z,4.30
2022-08-16T22:34:13.427Z,4.03
2022-08-16T22:36:42.999Z,4.40
2022-08-16T22:39:14.611Z,4.90
2022-08-16T22:41:45.689Z,4.65
2022-08-16T22:44:14.494Z,3.88
2022-08-16T22:46:44.473Z,4.45
2022-08-16T22:49:13.631Z,4.20
2022-08-16T22:51:41.973Z,3.90
2022-08-16T22:54:44.041Z,4.15
2022-08-16T22:56:59.397Z,4.88
2022-08-16T22:59:29.477Z,4.07
2022-08-16T23:01:59.103Z,4.70
2022-08-16T23:04:27.309Z,4.15
2022-08-16T23:06:55.382Z,4.03
2022-08-16T23:09:23.667Z,4.35
2022-08-16T23:11:52.210Z,4.72
2022-08-16T23:14:20.245Z,4.53
2022-08-16T23:16:48.699Z,4.38
2022-08-16T23:19:19.038Z,4.28
2022-08-16T23:21:49.353Z,4.18
2022-08-16T23:24:20.299Z,4.22
2022-08-16T23:26:49.479Z,4.53
2022-08-16T23:29:23.571Z,4.10
2022-08-16T23:31:55.254Z,4.43
2022-08-16T23:34:25.425Z,4.20
2022-08-16T23:36:53.706Z,4.13
2022-08-16T23:39:21.896Z,4.13
2022-08-16T23:41:50.006Z,4.47
2022-08-16T23:44:57.076Z,3.60
2022-08-16T23:47:07.065Z,4.22
2022-08-16T23:50:01.412Z,3.80
2022-08-16T23:52:45.697Z,4.20
2022-08-16T23:55:13.061Z,4.60
2022-08-16T23:57:41.148Z,4.22
